Time;durP1;ratioP1;P1;durP2;ratioP2;P2;SDS_P1;SDS_P2;PMS_P1;PMS_P2;Temp;Humidity;BMP_temperature;BMP_pressure;BME280_temperature;BME280_humidity;BME280_pressure;Samples;Min_cycle;Max_cycle;Signal;HPM_P1;HPM_P2
2021/07/07 00:09:40;;;;;;;15.4;10.9;;;;;;;18.13;100;98361.58;;;;
2021/07/07 00:19:39;;;;;;;15.6;12.1;;;;;;;17.99;100;98360.17;;;;
2021/07/07 00:29:39;;;;;;;14.7;11;;;;;;;17.83;100;98359.48;;;;
2021/07/07 00:39:38;;;;;;;13.8;12.4;;;;;;;17.68;100;98356.83;;;;
2021/07/07 00:49:40;;;;;;;13.5;10.2;;;;;;;17.59;100;98362.52;;;;
2021/07/07 00:59:37;;;;;;;15.1;10.6;;;;;;;17.42;100;98360.95;;;;
2021/07/07 01:09:37;;;;;;;16.2;11.8;;;;;;;17.27;100;98353.64;;;;
2021/07/07 01:19:36;;;;;;;12.5;11.2;;;;;;;17.19;100;98356.55;;;;
2021/07/07 01:29:36;;;;;;;16.1;13;;;;;;;17.07;100;98352.83;;;;
2021/07/07 01:39:35;;;;;;;12.1;10.6;;;;;;;17.02;100;98357.75;;;;
2021/07/07 01:49:35;;;;;;;14.6;13;;;;;;;16.94;100;98348.63;;;;
2021/07/07 01:59:34;;;;;;;19.5;13.4;;;;;;;16.92;100;98350.13;;;;
2021/07/07 02:09:34;;;;;;;20.6;13.5;;;;;;;16.85;100;98356.2;;;;
2021/07/07 02:19:34;;;;;;;16.5;11.3;;;;;;;16.78;100;98347.88;;;;
2021/07/07 02:29:34;;;;;;;12.8;11.2;;;;;;;16.66;100;98350.69;;;;
2021/07/07 02:39:34;;;;;;;15.7;13.1;;;;;;;16.7;100;98361.66;;;;
2021/07/07 02:49:31;;;;;;;15.2;11.6;;;;;;;16.69;100;98360.89;;;;
2021/07/07 02:59:31;;;;;;;13.8;12.3;;;;;;;16.69;100;98373.7;;;;
2021/07/07 03:09:30;;;;;;;14.2;10.6;;;;;;;16.76;100;98382.83;;;;
2021/07/07 03:19:30;;;;;;;12.7;9.8;;;;;;;16.84;100;98391.93;;;;
2021/07/07 03:29:29;;;;;;;14.5;11.6;;;;;;;17.08;100;98406.13;;;;
2021/07/07 03:39:28;;;;;;;16;11.5;;;;;;;17.34;100;98412.93;;;;
2021/07/07 03:49:28;;;;;;;12;10.6;;;;;;;17.56;100;98406.84;;;;
2021/07/07 03:59:27;;;;;;;14.7;11.4;;;;;;;17.86;100;98410.56;;;;
2021/07/07 04:09:28;;;;;;;12.7;10.4;;;;;;;18.26;100;98420.27;;;;
2021/07/07 04:19:27;;;;;;;16.2;12.2;;;;;;;18.56;100;98426.72;;;;
2021/07/07 04:29:27;;;;;;;15.4;12.8;;;;;;;18.87;100;98445.58;;;;
2021/07/07 04:39:26;;;;;;;20.1;12.5;;;;;;;19.27;100;98436.83;;;;
2021/07/07 04:49:26;;;;;;;13.5;11.8;;;;;;;19.79;100;98462.56;;;;
2021/07/07 04:59:26;;;;;;;17.1;13.7;;;;;;;20.23;100;98449.05;;;;
2021/07/07 05:09:26;;;;;;;18.1;15;;;;;;;20.63;100;98456.52;;;;
2021/07/07 05:19:25;;;;;;;16.7;14;;;;;;;21.11;100;98462.83;;;;
2021/07/07 05:29:25;;;;;;;18.9;11.9;;;;;;;21.43;100;98472.08;;;;
2021/07/07 05:39:25;;;;;;;14.5;13;;;;;;;21.91;100;98470.82;;;;
2021/07/07 05:49:25;;;;;;;17.2;12;;;;;;;22.31;100;98478.05;;;;
2021/07/07 05:59:26;;;;;;;16.9;12.3;;;;;;;22.47;100;98472.2;;;;
2021/07/07 06:09:26;;;;;;;19.9;11.3;;;;;;;22.85;100;98479.75;;;;
2021/07/07 06:19:26;;;;;;;11.1;9.3;;;;;;;23.63;100;98493.52;;;;
2021/07/07 06:29:26;;;;;;;14.1;10;;;;;;;24.11;100;98490.23;;;;
2021/07/07 06:39:27;;;;;;;15.4;9.9;;;;;;;24.49;100;98489.29;;;;
2021/07/07 06:49:27;;;;;;;10.2;8.7;;;;;;;25.06;100;98494.47;;;;
2021/07/07 06:59:28;;;;;;;9.5;8.1;;;;;;;25.41;100;98497.7;;;;
2021/07/07 07:09:28;;;;;;;11.8;9.7;;;;;;;25.73;100;98502.16;;;;
2021/07/07 07:19:29;;;;;;;11.1;9.2;;;;;;;25.91;100;98500.79;;;;
2021/07/07 07:29:29;;;;;;;11.3;9.1;;;;;;;26.44;100;98502.95;;;;
2021/07/07 07:39:39;;;;;;;12.6;8.4;;;;;;;26.86;100;98496.06;;;;
2021/07/07 07:49:31;;;;;;;9.8;7;;;;;;;27.08;100;98502.03;;;;
2021/07/07 07:59:32;;;;;;;9.4;8;;;;;;;27.01;100;98497.4;;;;
2021/07/07 08:09:33;;;;;;;8.5;7.6;;;;;;;27.65;100;98504.67;;;;
2021/07/07 08:19:34;;;;;;;8.7;6.2;;;;;;;28.17;97.63379;98509.64;;;;
2021/07/07 08:29:35;;;;;;;8.6;5.5;;;;;;;28.55;94.91016;98518.36;;;;
2021/07/07 08:39:35;;;;;;;7.6;4.3;;;;;;;28.95;85.68359;98520.63;;;;
2021/07/07 08:49:36;;;;;;;5.9;3.8;;;;;;;29.1;79.20215;98520.3;;;;
2021/07/07 08:59:37;;;;;;;6;4.6;;;;;;;29.06;79.99512;98525.15;;;;
2021/07/07 09:09:39;;;;;;;5.6;2.8;;;;;;;29.28;76.1748;98529.8;;;;
2021/07/07 09:19:40;;;;;;;5.6;3;;;;;;;29.53;72.39746;98526.41;;;;
2021/07/07 09:29:41;;;;;;;7.7;3.5;;;;;;;30;70.04004;98526.77;;;;
2021/07/07 09:39:42;;;;;;;5.9;3.6;;;;;;;29.96;74.25781;98537.2;;;;
2021/07/07 09:49:47;;;;;;;5.7;3.7;;;;;;;30.2;71.0498;98543.32;;;;
2021/07/07 09:59:45;;;;;;;5.8;3.6;;;;;;;31.01;70.60742;98537.38;;;;
2021/07/07 10:09:46;;;;;;;6;3.5;;;;;;;31.66;63.86133;98559.95;;;;
2021/07/07 10:19:48;;;;;;;7.3;3.6;;;;;;;31.32;61.43848;98543.94;;;;
2021/07/07 10:29:49;;;;;;;5.8;4;;;;;;;31.32;69.04492;98543.94;;;;
2021/07/07 10:39:51;;;;;;;5.8;3.5;;;;;;;31.6;63.50879;98540.24;;;;
2021/07/07 10:49:52;;;;;;;6.2;3.8;;;;;;;31.64;60.60254;98548.48;;;;
2021/07/07 10:59:54;;;;;;;5.4;3.8;;;;;;;31.66;60.09375;98532.08;;;;
2021/07/07 11:09:55;;;;;;;6.8;3.9;;;;;;;31.71;62.13379;98525.95;;;;
2021/07/07 11:19:56;;;;;;;6.1;3.8;;;;;;;31.78;62.06055;98523.7;;;;
2021/07/07 11:29:58;;;;;;;8.8;4.5;;;;;;;31.43;62.49902;98536.02;;;;
2021/07/07 11:39:59;;;;;;;7.2;3.9;;;;;;;31.63;60.4707;98527.41;;;;
2021/07/07 11:50:01;;;;;;;6.2;3.8;;;;;;;31.78;64.22363;98529.27;;;;
2021/07/07 12:00:03;;;;;;;5.4;3.6;;;;;;;31.45;63.28613;98528.76;;;;
2021/07/07 12:10:04;;;;;;;5.6;3.3;;;;;;;32.15;60.94336;98524.79;;;;
2021/07/07 12:20:06;;;;;;;7.5;3.9;;;;;;;32.08;62.80176;98524.27;;;;
2021/07/07 12:30:07;;;;;;;5.6;4.1;;;;;;;32.21;61.96387;98536.16;;;;
2021/07/07 12:40:11;;;;;;;7.2;4.2;;;;;;;32.28;63.1748;98539.45;;;;
2021/07/07 12:50:10;;;;;;;6.3;5.1;;;;;;;32.39;61.2373;98541.84;;;;
2021/07/07 13:00:12;;;;;;;6.4;3.4;;;;;;;33.36;61.84473;98546.87;;;;
2021/07/07 13:10:14;;;;;;;6.4;4.2;;;;;;;33.42;60.73047;98551.86;;;;
2021/07/07 13:20:15;;;;;;;6.5;4.1;;;;;;;32.96;56.41016;98554.45;;;;
2021/07/07 13:30:17;;;;;;;5.6;3.4;;;;;;;33.36;59.20703;98549.66;;;;
2021/07/07 13:40:19;;;;;;;5.8;3.3;;;;;;;33.49;57.06055;98555.14;;;;
2021/07/07 13:50:21;;;;;;;7.7;3.8;;;;;;;33.24;58.18848;98550.56;;;;
2021/07/07 14:00:22;;;;;;;5.4;3.5;;;;;;;33.24;61.18359;98549.78;;;;
2021/07/07 14:10:24;;;;;;;7.3;4;;;;;;;33.89;62.71582;98550.25;;;;
2021/07/07 14:20:25;;;;;;;11.4;3.5;;;;;;;33.81;53.35547;98551.79;;;;
2021/07/07 14:30:27;;;;;;;6.3;3.4;;;;;;;33.55;56.79395;98556.08;;;;
2021/07/07 14:40:29;;;;;;;7.3;4.3;;;;;;;33.99;57.73242;98561.44;;;;
2021/07/07 14:50:31;;;;;;;6.7;4.6;;;;;;;34.46;57.14453;98555.39;;;;
2021/07/07 15:00:32;;;;;;;6.1;3.3;;;;;;;34.52;53.3418;98542.3;;;;
2021/07/07 15:10:35;;;;;;;5.9;3.7;;;;;;;35.32;54.85156;98556.55;;;;
2021/07/07 15:20:36;;;;;;;7.8;4.2;;;;;;;37.31;50.4668;98547.64;;;;
2021/07/07 15:30:39;;;;;;;8;5.2;;;;;;;38.37;44.75684;98561.03;;;;
2021/07/07 15:40:41;;;;;;;6.9;4.4;;;;;;;38.09;42.71777;98554.32;;;;
2021/07/07 15:50:44;;;;;;;6.3;3.7;;;;;;;38.49;43.65234;98561.95;;;;
2021/07/07 16:00:47;;;;;;;6.3;3.4;;;;;;;39.41;42.48633;98562.48;;;;
2021/07/07 16:10:49;;;;;;;5.1;3.1;;;;;;;39.81;40.66113;98567.1;;;;
2021/07/07 16:20:52;;;;;;;6.7;3.9;;;;;;;40.04;39.57324;98562.3;;;;
2021/07/07 16:30:56;;;;;;;6;3.8;;;;;;;40.56;39.17773;98571.22;;;;
2021/07/07 16:40:58;;;;;;;5.7;3;;;;;;;39.41;40.04199;98573.77;;;;
2021/07/07 16:51:02;;;;;;;5.5;3.7;;;;;;;39.22;40.2334;98573.34;;;;
2021/07/07 17:01:04;;;;;;;7.8;4.4;;;;;;;38.75;42.68164;98586.02;;;;
2021/07/07 17:11:07;;;;;;;4.8;3;;;;;;;38.73;42.3877;98587.8;;;;
2021/07/07 17:21:09;;;;;;;7.1;4;;;;;;;35.04;51.03711;98581.09;;;;
2021/07/07 17:31:12;;;;;;;6.2;4.6;;;;;;;33.55;57.15137;98574.87;;;;
2021/07/07 17:41:13;;;;;;;10.3;4.3;;;;;;;34.45;55.0957;98588.2;;;;
2021/07/07 17:51:15;;;;;;;8.2;4.9;;;;;;;35.67;52.30957;98591.28;;;;
2021/07/07 18:01:17;;;;;;;7.3;4.3;;;;;;;35.33;52.86035;98595.33;;;;
2021/07/07 18:11:19;;;;;;;6.5;5.1;;;;;;;33.78;55.62695;98597.46;;;;
2021/07/07 18:21:21;;;;;;;8.5;6.1;;;;;;;31.74;63.18359;98611.45;;;;
2021/07/07 18:31:22;;;;;;;10.3;7.1;;;;;;;30.23;69.77832;98617.52;;;;
2021/07/07 18:41:24;;;;;;;19.9;12;;;;;;;28.95;75.54297;98625.3;;;;
2021/07/07 18:51:25;;;;;;;9.1;7.2;;;;;;;27.93;81.53223;98633.57;;;;
2021/07/07 19:01:27;;;;;;;9.1;6.8;;;;;;;27.22;85.88281;98636.63;;;;
2021/07/07 19:11:27;;;;;;;19.3;16.3;;;;;;;26.61;91.2002;98644.11;;;;
2021/07/07 19:21:27;;;;;;;16.6;13.1;;;;;;;26.19;91.19727;98650.88;;;;
2021/07/07 19:31:27;;;;;;;11.8;9.7;;;;;;;25.81;92.75;98661.05;;;;
2021/07/07 19:41:29;;;;;;;12.6;9.7;;;;;;;25.47;94.40137;98672.72;;;;
2021/07/07 19:51:28;;;;;;;15.2;11.9;;;;;;;25.2;94.82129;98674.43;;;;
2021/07/07 20:01:29;;;;;;;13.8;11.6;;;;;;;24.74;100;98691.17;;;;
2021/07/07 20:11:29;;;;;;;13.2;11.4;;;;;;;24.62;100;98713.63;;;;
2021/07/07 20:21:29;;;;;;;11.6;8.4;;;;;;;24.55;100;98719.95;;;;
2021/07/07 20:31:30;;;;;;;19.3;8.8;;;;;;;24.33;100;98731.41;;;;
2021/07/07 20:41:30;;;;;;;11.8;7.2;;;;;;;23.99;100;98739.23;;;;
2021/07/07 20:51:30;;;;;;;10.7;5.8;;;;;;;23.83;100;98752.59;;;;
2021/07/07 21:01:30;;;;;;;9.7;5.1;;;;;;;23.55;100;98753.33;;;;
2021/07/07 21:11:32;;;;;;;7.3;4.8;;;;;;;23.32;100;98778.39;;;;
2021/07/07 21:21:31;;;;;;;12.2;4.8;;;;;;;23.08;100;98799.08;;;;
2021/07/07 21:31:31;;;;;;;9.3;4.4;;;;;;;22.78;100;98812.27;;;;
2021/07/07 21:41:31;;;;;;;11;4.5;;;;;;;22.51;100;98830.88;;;;
2021/07/07 21:51:31;;;;;;;6.7;3.7;;;;;;;21.98;100;98844.13;;;;
2021/07/07 22:01:31;;;;;;;8.5;4.4;;;;;;;21.77;100;98857.58;;;;
2021/07/07 22:11:31;;;;;;;7.9;4.2;;;;;;;21.55;100;98855.77;;;;
2021/07/07 22:21:31;;;;;;;7.8;3.6;;;;;;;21.25;100;98865.92;;;;
2021/07/07 22:31:33;;;;;;;10.7;5;;;;;;;21.05;100;98868.77;;;;
2021/07/07 22:41:31;;;;;;;7.2;3.3;;;;;;;20.79;100;98887.92;;;;
2021/07/07 22:51:30;;;;;;;8.8;5.2;;;;;;;20.72;100;98884.3;;;;
2021/07/07 23:01:30;;;;;;;7.6;3.4;;;;;;;20.53;100;98890.64;;;;
2021/07/07 23:11:30;;;;;;;6.9;3.2;;;;;;;20.36;100;98907.55;;;;
2021/07/07 23:21:30;;;;;;;6.6;2.7;;;;;;;20.16;100;98909.52;;;;
2021/07/07 23:31:29;;;;;;;6.1;2.9;;;;;;;20.1;100;98916.41;;;;
2021/07/07 23:41:29;;;;;;;11.7;3.4;;;;;;;19.91;100;98924.65;;;;
2021/07/07 23:51:29;;;;;;;7;3.8;;;;;;;19.84;100;98928.04;;;;
